Time;durP1;ratioP1;P1;durP2;ratioP2;P2;SDS_P1;SDS_P2;PMS_P1;PMS_P2;Temp;Humidity;BMP_temperature;BMP_pressure;BME280_temperature;BME280_humidity;BME280_pressure;Samples;Min_cycle;Max_cycle;Signal;HPM_P1;HPM_P2
2022/07/11 00:02:17;;;;;;;5.93;2.70;;;15.30;99.90;;;;;;5052759;28;20048;-44
2022/07/11 00:04:44;;;;;;;8.90;2.25;;;15.20;99.90;;;;;;5052716;28;20033;-45
2022/07/11 00:07:10;;;;;;;5.63;2.40;;;15.30;99.90;;;;;;5018172;28;20059;-47
2022/07/11 00:09:36;;;;;;;8.43;2.42;;;15.20;99.90;;;;;;5052792;28;20048;-45
2022/07/11 00:12:02;;;;;;;6.40;2.28;;;15.20;99.90;;;;;;5052393;28;20037;-47
2022/07/11 00:14:28;;;;;;;4.97;2.10;;;15.20;99.90;;;;;;5052396;28;20118;-46
2022/07/11 00:16:54;;;;;;;6.68;2.33;;;15.20;99.90;;;;;;5052321;28;20398;-50
2022/07/11 00:19:23;;;;;;;5.35;2.33;;;15.20;99.90;;;;;;5052474;28;20049;-50
2022/07/11 00:21:50;;;;;;;6.13;2.58;;;15.10;99.90;;;;;;5052306;28;20041;-51
2022/07/11 00:24:17;;;;;;;6.38;2.75;;;15.00;99.90;;;;;;5052310;28;20041;-47
2022/07/11 00:26:43;;;;;;;5.35;2.28;;;15.20;99.90;;;;;;5050951;28;20049;-45
2022/07/11 00:29:09;;;;;;;8.98;3.13;;;15.10;99.90;;;;;;5052395;28;20128;-46
2022/07/11 00:31:35;;;;;;;7.82;2.95;;;15.10;99.90;;;;;;5050756;28;20116;-46
2022/07/11 00:34:01;;;;;;;6.15;2.80;;;15.10;99.90;;;;;;5051899;28;20435;-46
2022/07/11 00:36:26;;;;;;;6.63;2.70;;;15.10;99.90;;;;;;5052293;28;20044;-46
2022/07/11 00:38:52;;;;;;;7.22;2.58;;;15.00;99.90;;;;;;5052239;28;20060;-48
2022/07/11 00:41:18;;;;;;;8.02;3.10;;;15.10;99.90;;;;;;5052312;28;20045;-47
2022/07/11 00:43:54;;;;;;;6.82;3.40;;;15.10;99.90;;;;;;5051903;28;20116;-46
2022/07/11 00:46:20;;;;;;;5.53;2.50;;;15.00;99.90;;;;;;5052287;28;20045;-45
2022/07/11 00:48:46;;;;;;;5.82;2.65;;;15.00;99.90;;;;;;5052154;28;20068;-45
2022/07/11 00:51:12;;;;;;;5.70;2.63;;;15.00;99.90;;;;;;5051893;28;20080;-45
2022/07/11 00:53:39;;;;;;;6.88;2.70;;;14.90;99.90;;;;;;5034415;28;20044;-49
2022/07/11 00:56:06;;;;;;;4.93;2.65;;;14.90;99.90;;;;;;5052217;28;20041;-46
2022/07/11 00:58:32;;;;;;;5.82;3.15;;;15.00;99.90;;;;;;5052196;28;20041;-46
2022/07/11 01:00:58;;;;;;;8.00;3.35;;;15.00;99.90;;;;;;5052091;28;20485;-45
2022/07/11 01:03:24;;;;;;;7.78;3.17;;;14.90;99.90;;;;;;5051685;28;20045;-45
2022/07/11 01:05:49;;;;;;;7.95;3.10;;;14.90;99.90;;;;;;5052006;28;20047;-45
2022/07/11 01:08:15;;;;;;;7.65;3.55;;;15.00;99.90;;;;;;5051841;28;20524;-46
2022/07/11 01:10:41;;;;;;;7.95;3.25;;;14.90;99.90;;;;;;5051726;28;20041;-45
2022/07/11 01:13:07;;;;;;;8.88;3.20;;;14.90;99.90;;;;;;5052077;28;20116;-45
2022/07/11 01:15:36;;;;;;;7.82;3.55;;;14.80;99.90;;;;;;5051918;28;20045;-46
2022/07/11 01:18:02;;;;;;;9.45;3.45;;;14.80;99.90;;;;;;5051691;28;20493;-46
2022/07/11 01:20:28;;;;;;;8.63;3.22;;;14.90;99.90;;;;;;5051847;28;20037;-49
2022/07/11 01:22:57;;;;;;;8.30;3.65;;;14.90;99.90;;;;;;5066890;28;20067;-49
2022/07/11 01:25:34;;;;;;;8.55;3.78;;;14.90;99.90;;;;;;5051621;28;20048;-46
2022/07/11 01:28:02;;;;;;;8.68;3.95;;;14.80;99.90;;;;;;5051899;28;20098;-50
2022/07/11 01:30:29;;;;;;;10.63;4.03;;;14.90;99.90;;;;;;5051527;28;20128;-49
2022/07/11 01:32:55;;;;;;;8.82;3.60;;;15.00;99.90;;;;;;5066811;28;20037;-46
2022/07/11 01:35:22;;;;;;;8.85;3.63;;;15.10;99.90;;;;;;5051568;28;20444;-46
2022/07/11 01:37:48;;;;;;;7.35;3.30;;;15.00;99.90;;;;;;5051753;28;20048;-45
2022/07/11 01:40:14;;;;;;;7.00;3.38;;;15.10;99.90;;;;;;5051721;28;20049;-46
2022/07/11 01:42:40;;;;;;;8.18;3.90;;;15.00;99.90;;;;;;5051271;28;20379;-46
2022/07/11 01:45:06;;;;;;;9.15;3.90;;;15.10;99.90;;;;;;5054844;28;20431;-47
2022/07/11 01:47:32;;;;;;;6.63;2.80;;;15.20;99.90;;;;;;5055196;28;20122;-45
2022/07/11 01:49:58;;;;;;;5.80;3.28;;;15.10;99.90;;;;;;5055417;28;20037;-45
2022/07/11 01:52:24;;;;;;;7.40;2.63;;;15.10;99.90;;;;;;5054832;28;20489;-45
2022/07/11 01:54:49;;;;;;;8.65;3.63;;;15.00;99.90;;;;;;5054996;28;20072;-45
2022/07/11 01:57:15;;;;;;;6.68;3.10;;;15.00;99.90;;;;;;5055253;28;20037;-46
2022/07/11 01:59:41;;;;;;;9.05;3.78;;;14.90;99.90;;;;;;5054913;28;20486;-49
2022/07/11 02:02:07;;;;;;;10.02;3.28;;;15.00;99.90;;;;;;5054705;28;20095;-46
2022/07/11 02:04:32;;;;;;;9.40;3.55;;;14.90;99.90;;;;;;5054922;28;20037;-48
2022/07/11 02:06:58;;;;;;;7.20;3.35;;;14.80;99.90;;;;;;5054453;28;20068;-45
2022/07/11 02:09:24;;;;;;;8.48;3.83;;;15.00;99.90;;;;;;5054873;28;20067;-50
2022/07/11 02:11:50;;;;;;;8.27;3.40;;;14.80;99.90;;;;;;5054511;28;20407;-46
2022/07/11 02:14:16;;;;;;;8.90;3.40;;;15.00;99.90;;;;;;5054595;28;20045;-48
2022/07/11 02:16:41;;;;;;;7.55;3.40;;;14.90;99.90;;;;;;5054895;28;20485;-48
2022/07/11 02:19:07;;;;;;;8.82;3.80;;;14.90;99.90;;;;;;5054606;28;20124;-49
2022/07/11 02:21:33;;;;;;;10.32;3.75;;;15.00;99.90;;;;;;5054688;28;20029;-45
2022/07/11 02:23:59;;;;;;;10.40;4.07;;;15.00;99.90;;;;;;5054734;28;20041;-46
2022/07/11 02:26:25;;;;;;;7.60;3.33;;;15.00;99.90;;;;;;5054552;28;20401;-45
2022/07/11 02:28:51;;;;;;;8.35;3.30;;;15.00;99.90;;;;;;5053323;28;20372;-46
2022/07/11 02:31:16;;;;;;;7.93;4.20;;;14.90;99.90;;;;;;5054097;28;20421;-47
2022/07/11 02:33:42;;;;;;;7.90;2.72;;;14.90;99.90;;;;;;5069989;28;20040;-46
2022/07/11 02:36:08;;;;;;;6.40;2.85;;;15.00;99.90;;;;;;5069687;28;20052;-46
2022/07/11 02:38:36;;;;;;;9.07;2.83;;;15.00;99.90;;;;;;5054201;28;20124;-47
2022/07/11 02:41:02;;;;;;;5.95;2.42;;;15.00;99.90;;;;;;5054130;28;20076;-45
2022/07/11 02:43:28;;;;;;;7.13;2.63;;;14.90;99.90;;;;;;5054318;28;20497;-51
2022/07/11 02:45:54;;;;;;;8.13;2.75;;;14.80;99.90;;;;;;5054067;28;20485;-46
2022/07/11 02:48:20;;;;;;;8.75;2.10;;;14.90;99.90;;;;;;5054369;28;20044;-46
2022/07/11 02:50:46;;;;;;;6.63;2.10;;;14.90;99.90;;;;;;5053982;28;20568;-49
2022/07/11 02:53:12;;;;;;;5.57;1.80;;;14.80;99.90;;;;;;5036056;28;20055;-48
2022/07/11 02:55:38;;;;;;;5.20;1.83;;;15.00;99.90;;;;;;5053217;28;20124;-49
2022/07/11 02:58:04;;;;;;;7.38;2.17;;;14.90;99.90;;;;;;5053964;28;20049;-47
2022/07/11 03:00:30;;;;;;;7.28;2.13;;;14.90;99.90;;;;;;5054175;28;20037;-50
2022/07/11 03:02:56;;;;;;;7.93;2.22;;;15.00;99.90;;;;;;5054016;28;20077;-47
2022/07/11 03:05:21;;;;;;;6.00;2.13;;;15.10;99.90;;;;;;5053845;28;20087;-50
2022/07/11 03:07:47;;;;;;;6.93;2.20;;;15.00;99.90;;;;;;5053466;28;20049;-47
2022/07/11 03:10:13;;;;;;;7.45;2.35;;;14.90;99.90;;;;;;5053823;28;20045;-46
2022/07/11 03:12:39;;;;;;;7.47;2.60;;;15.00;99.90;;;;;;5053600;28;20040;-46
2022/07/11 03:15:06;;;;;;;9.60;2.40;;;15.00;99.90;;;;;;5053537;28;20075;-48
2022/07/11 03:17:31;;;;;;;8.77;2.75;;;14.90;99.90;;;;;;5053766;28;20494;-47
2022/07/11 03:19:57;;;;;;;8.95;2.47;;;14.90;99.90;;;;;;5053655;28;20167;-47
2022/07/11 03:22:23;;;;;;;5.80;2.03;;;15.00;99.90;;;;;;5053138;28;20029;-46
2022/07/11 03:24:50;;;;;;;5.25;1.83;;;15.00;99.90;;;;;;5053386;28;20076;-46
2022/07/11 03:27:16;;;;;;;5.13;1.80;;;15.00;99.90;;;;;;5052335;28;20063;-45
2022/07/11 03:29:42;;;;;;;7.18;2.35;;;15.10;99.90;;;;;;5053493;28;20478;-46
2022/07/11 03:32:09;;;;;;;5.97;1.63;;;14.90;99.90;;;;;;5053376;28;20407;-44
2022/07/11 03:34:35;;;;;;;6.78;1.65;;;15.10;99.90;;;;;;5053337;28;20037;-46
2022/07/11 03:37:01;;;;;;;4.50;1.80;;;15.10;99.90;;;;;;5053289;28;20048;-47
2022/07/11 03:39:27;;;;;;;4.30;1.30;;;15.00;99.90;;;;;;5053418;28;20052;-47
2022/07/11 03:41:53;;;;;;;7.30;1.60;;;14.90;99.90;;;;;;5052026;28;20420;-47
2022/07/11 03:44:18;;;;;;;7.22;2.13;;;15.00;99.90;;;;;;5053060;28;20099;-49
2022/07/11 03:46:44;;;;;;;5.25;1.70;;;14.90;99.90;;;;;;5052863;28;20033;-45
2022/07/11 03:49:10;;;;;;;4.65;1.50;;;15.00;99.90;;;;;;5052753;28;20041;-46
2022/07/11 03:51:35;;;;;;;9.27;1.92;;;15.00;99.90;;;;;;5053018;28;20036;-46
2022/07/11 03:54:01;;;;;;;7.03;1.50;;;14.90;99.90;;;;;;5052888;28;20041;-47
2022/07/11 03:56:27;;;;;;;6.50;2.40;;;14.90;99.90;;;;;;5053098;28;20079;-46
2022/07/11 03:58:53;;;;;;;4.63;1.67;;;14.90;99.90;;;;;;5034999;28;20123;-46
2022/07/11 04:01:19;;;;;;;4.85;1.35;;;15.00;99.90;;;;;;5052503;28;20045;-50
2022/07/11 04:03:46;;;;;;;5.10;1.50;;;14.90;99.90;;;;;;5053046;28;20041;-49
2022/07/11 04:06:12;;;;;;;9.18;1.98;;;15.00;99.90;;;;;;5052450;28;20076;-49
2022/07/11 04:08:38;;;;;;;4.45;1.40;;;15.00;99.90;;;;;;5051960;28;20450;-48
2022/07/11 04:11:04;;;;;;;4.88;1.33;;;15.10;99.90;;;;;;5052784;28;20115;-47
2022/07/11 04:13:30;;;;;;;7.35;2.25;;;15.20;99.90;;;;;;5052395;28;20037;-46
2022/07/11 04:15:56;;;;;;;3.70;1.40;;;15.10;99.90;;;;;;5034663;28;20397;-45
2022/07/11 04:18:21;;;;;;;4.35;1.75;;;15.00;99.90;;;;;;5052242;28;20040;-48
2022/07/11 04:20:49;;;;;;;7.40;2.13;;;15.00;99.90;;;;;;5052326;28;20028;-46
2022/07/11 04:23:15;;;;;;;5.25;1.45;;;15.20;99.90;;;;;;5052336;28;20048;-46
2022/07/11 04:25:41;;;;;;;6.30;1.50;;;15.10;99.90;;;;;;5052503;28;20078;-45
2022/07/11 04:28:06;;;;;;;5.18;1.80;;;15.20;99.90;;;;;;5052222;28;20037;-47
2022/07/11 04:30:33;;;;;;;5.93;1.67;;;15.10;99.90;;;;;;5052395;28;20035;-47
2022/07/11 04:32:59;;;;;;;5.88;1.73;;;15.20;99.90;;;;;;5052121;28;20045;-47
2022/07/11 04:35:26;;;;;;;6.57;1.85;;;15.10;99.90;;;;;;5052299;28;20064;-45
2022/07/11 04:37:52;;;;;;;5.72;1.45;;;15.10;99.90;;;;;;5052377;28;20080;-46
2022/07/11 04:40:18;;;;;;;5.13;1.50;;;15.30;99.90;;;;;;5052223;28;20497;-49
2022/07/11 04:42:43;;;;;;;5.22;1.55;;;15.20;99.90;;;;;;5052193;28;20037;-49
2022/07/11 04:45:10;;;;;;;5.07;2.33;;;15.10;99.90;;;;;;5051980;28;20040;-46
2022/07/11 04:47:36;;;;;;;4.72;1.40;;;15.20;99.90;;;;;;5052270;28;20452;-47
2022/07/11 04:50:02;;;;;;;6.32;1.40;;;15.10;99.90;;;;;;5052271;28;20179;-48
2022/07/11 04:52:27;;;;;;;5.40;1.17;;;15.20;99.90;;;;;;5052011;28;20037;-49
2022/07/11 04:54:54;;;;;;;6.32;1.40;;;15.20;99.90;;;;;;5052087;28;20033;-48
2022/07/11 04:57:20;;;;;;;7.30;1.67;;;15.20;99.90;;;;;;5052166;28;20044;-45
2022/07/11 04:59:45;;;;;;;4.75;1.85;;;15.20;99.90;;;;;;5052182;28;20037;-47
2022/07/11 05:02:11;;;;;;;6.40;1.30;;;15.20;99.90;;;;;;5052321;28;20159;-46
2022/07/11 05:04:37;;;;;;;4.55;1.15;;;15.30;99.90;;;;;;5052111;28;20362;-48
2022/07/11 05:07:02;;;;;;;6.63;1.23;;;15.40;99.90;;;;;;5051801;28;20061;-47
2022/07/11 05:09:28;;;;;;;4.93;1.30;;;15.40;99.90;;;;;;5051830;28;20119;-47
2022/07/11 05:11:54;;;;;;;7.57;1.30;;;15.20;99.90;;;;;;5051977;28;20033;-46
2022/07/11 05:14:19;;;;;;;4.40;1.20;;;15.20;99.90;;;;;;5033873;28;20084;-46
2022/07/11 05:16:45;;;;;;;3.75;1.40;;;15.40;99.90;;;;;;5051402;28;20076;-49
2022/07/11 05:19:11;;;;;;;6.10;1.15;;;15.30;99.90;;;;;;5053655;28;20037;-47
2022/07/11 05:21:37;;;;;;;7.25;1.10;;;15.30;99.90;;;;;;5055654;28;20041;-47
2022/07/11 05:24:03;;;;;;;8.57;1.52;;;15.40;99.90;;;;;;5055618;28;20045;-47
2022/07/11 05:26:29;;;;;;;2.65;0.80;;;15.40;99.90;;;;;;5055414;28;20048;-50
2022/07/11 05:28:54;;;;;;;3.35;0.80;;;15.30;99.90;;;;;;5055691;28;20112;-46
2022/07/11 05:31:20;;;;;;;3.33;0.95;;;15.50;99.90;;;;;;5054173;28;20048;-47
2022/07/11 05:33:46;;;;;;;3.63;1.00;;;15.30;99.90;;;;;;5054547;28;20516;-48
2022/07/11 05:36:12;;;;;;;4.15;1.10;;;15.40;99.90;;;;;;5054538;28;20057;-47
2022/07/11 05:38:38;;;;;;;3.75;1.33;;;15.40;99.90;;;;;;5054582;28;20048;-45
2022/07/11 05:41:04;;;;;;;5.75;1.20;;;15.50;99.90;;;;;;5070007;28;20048;-47
2022/07/11 05:43:30;;;;;;;3.85;1.15;;;15.50;99.90;;;;;;5054183;28;20052;-47
2022/07/11 05:45:55;;;;;;;5.15;1.20;;;15.50;99.90;;;;;;5054367;28;20033;-47
2022/07/11 05:48:21;;;;;;;4.80;1.35;;;15.60;99.90;;;;;;5054484;28;20037;-46
2022/07/11 05:50:47;;;;;;;4.40;1.38;;;15.60;99.90;;;;;;5053967;28;20036;-50
2022/07/11 05:53:12;;;;;;;3.95;1.25;;;15.70;99.90;;;;;;5035982;28;20571;-49
2022/07/11 05:55:38;;;;;;;6.53;1.20;;;15.60;99.90;;;;;;5052124;28;20497;-48
2022/07/11 05:58:04;;;;;;;5.88;1.38;;;15.70;99.90;;;;;;5042289;28;20065;-47
2022/07/11 06:00:30;;;;;;;4.57;1.10;;;15.60;99.90;;;;;;5043144;28;20689;-48
2022/07/11 06:02:55;;;;;;;5.78;1.40;;;15.70;99.90;;;;;;5043913;28;20061;-47
2022/07/11 06:05:22;;;;;;;5.50;1.20;;;15.70;99.90;;;;;;5039085;28;20056;-48
2022/07/11 06:10:32;;;;;;;4.28;1.20;;;15.70;99.90;;;;;;5033922;28;20475;-48
2022/07/11 06:12:58;;;;;;;5.10;1.10;;;15.60;99.90;;;;;;5033869;28;20120;-49
2022/07/11 06:15:24;;;;;;;2.92;1.02;;;15.80;99.90;;;;;;5033792;28;20386;-46
2022/07/11 06:17:50;;;;;;;4.22;1.10;;;15.70;99.90;;;;;;5033805;28;20053;-47
2022/07/11 06:20:15;;;;;;;2.22;0.75;;;15.70;99.90;;;;;;5035235;28;20080;-50
2022/07/11 06:22:41;;;;;;;2.67;0.80;;;15.70;99.90;;;;;;5053661;28;20045;-50
2022/07/11 06:25:08;;;;;;;4.60;0.93;;;15.80;99.90;;;;;;5053546;28;20148;-46
2022/07/11 06:27:35;;;;;;;4.57;1.08;;;15.60;99.90;;;;;;5053707;28;20044;-47
2022/07/11 06:30:01;;;;;;;3.67;1.00;;;15.70;99.90;;;;;;5052624;28;20044;-50
2022/07/11 06:32:26;;;;;;;6.32;1.67;;;15.80;99.90;;;;;;5052038;28;20405;-45
2022/07/11 06:34:52;;;;;;;2.40;0.80;;;15.80;99.90;;;;;;5053415;28;20033;-46
2022/07/11 06:37:18;;;;;;;3.03;1.15;;;15.80;99.90;;;;;;5053301;28;20041;-46
2022/07/11 06:39:44;;;;;;;3.28;1.05;;;15.80;99.90;;;;;;5053154;28;20063;-50
2022/07/11 06:42:10;;;;;;;4.03;1.20;;;15.70;99.90;;;;;;5053418;28;20032;-48
2022/07/11 06:44:35;;;;;;;5.70;0.98;;;15.70;99.90;;;;;;5053175;28;20041;-46
2022/07/11 06:47:01;;;;;;;4.75;1.65;;;15.80;99.90;;;;;;5053107;28;20056;-50
2022/07/11 06:49:27;;;;;;;5.30;1.30;;;15.80;99.90;;;;;;5053378;28;20064;-48
2022/07/11 06:51:52;;;;;;;3.55;1.00;;;15.90;99.90;;;;;;5053020;28;20041;-46
2022/07/11 06:54:18;;;;;;;3.80;1.17;;;15.80;99.90;;;;;;5053014;28;20047;-47
2022/07/11 06:56:44;;;;;;;6.13;1.50;;;15.80;99.90;;;;;;5053209;28;20099;-45
2022/07/11 06:59:09;;;;;;;3.90;1.25;;;15.90;99.90;;;;;;5052956;28;20076;-46
2022/07/11 07:01:35;;;;;;;6.55;1.40;;;15.90;99.90;;;;;;5053062;28;20068;-47
2022/07/11 07:04:01;;;;;;;4.80;1.30;;;15.90;99.90;;;;;;5052889;28;20048;-46
2022/07/11 07:06:26;;;;;;;8.90;2.25;;;16.00;99.90;;;;;;5052912;28;20048;-46
2022/07/11 07:08:52;;;;;;;5.18;1.08;;;16.10;99.90;;;;;;5053032;28;20045;-48
2022/07/11 07:11:19;;;;;;;3.80;0.95;;;16.30;99.90;;;;;;5052698;28;20079;-46
2022/07/11 07:13:45;;;;;;;3.67;1.13;;;16.20;99.90;;;;;;5052780;28;20448;-45
2022/07/11 07:16:11;;;;;;;3.72;0.90;;;16.30;99.90;;;;;;5034550;28;20106;-45
2022/07/11 07:18:40;;;;;;;4.70;1.13;;;16.20;99.90;;;;;;5052626;28;20083;-49
2022/07/11 07:21:06;;;;;;;4.35;0.95;;;16.20;99.90;;;;;;5052734;28;20429;-49
2022/07/11 07:23:32;;;;;;;2.38;0.80;;;16.40;99.90;;;;;;5052697;28;20049;-46
2022/07/11 07:25:58;;;;;;;3.20;0.90;;;16.50;99.90;;;;;;5052514;28;20124;-49
2022/07/11 07:28:23;;;;;;;3.45;0.75;;;16.50;99.90;;;;;;5052692;28;20430;-46
2022/07/11 07:30:49;;;;;;;3.22;0.95;;;16.80;99.90;;;;;;5052433;28;20472;-45
2022/07/11 07:33:15;;;;;;;3.35;1.00;;;16.80;99.90;;;;;;5052671;28;20045;-47
2022/07/11 07:35:41;;;;;;;2.33;0.90;;;16.70;99.90;;;;;;5052379;28;20457;-46
2022/07/11 07:38:07;;;;;;;1.52;0.60;;;16.70;99.90;;;;;;5067459;28;20120;-46
2022/07/11 07:40:33;;;;;;;1.38;0.38;;;16.50;99.90;;;;;;5052204;28;20429;-47
2022/07/11 07:42:59;;;;;;;1.20;0.60;;;16.50;99.90;;;;;;5051463;28;20037;-46
2022/07/11 07:45:24;;;;;;;1.17;0.50;;;16.60;99.90;;;;;;5052029;28;20033;-48
2022/07/11 07:47:50;;;;;;;1.80;0.60;;;16.50;99.90;;;;;;5052416;28;20044;-49
2022/07/11 07:50:16;;;;;;;2.50;0.80;;;16.40;99.90;;;;;;5052284;28;20400;-50
2022/07/11 07:52:41;;;;;;;2.35;0.40;;;16.20;99.90;;;;;;5052122;28;20051;-47
2022/07/11 07:55:08;;;;;;;2.22;0.82;;;16.20;99.90;;;;;;5051644;28;20086;-47
2022/07/11 07:57:34;;;;;;;1.98;0.50;;;16.30;99.90;;;;;;5050593;28;20048;-49
2022/07/11 08:02:44;;;;;;;1.90;0.50;;;16.70;99.90;;;;;;5051668;28;20056;-45
2022/07/11 08:05:10;;;;;;;3.13;0.52;;;16.80;99.90;;;;;;5051990;28;20461;-46
2022/07/11 08:07:35;;;;;;;1.55;0.50;;;17.00;99.90;;;;;;5051552;28;20083;-46
2022/07/11 08:10:04;;;;;;;2.10;0.40;;;17.10;99.90;;;;;;5051694;28;20120;-46
2022/07/11 08:12:30;;;;;;;1.95;0.60;;;16.90;99.90;;;;;;5051490;28;20103;-47
2022/07/11 08:14:56;;;;;;;1.60;0.50;;;17.10;99.90;;;;;;5051308;28;20048;-45
2022/07/11 08:17:21;;;;;;;1.45;0.40;;;17.20;99.90;;;;;;5051561;28;20079;-45
2022/07/11 08:19:47;;;;;;;0.52;0.35;;;17.00;99.90;;;;;;5051195;28;20385;-46
2022/07/11 08:22:13;;;;;;;1.17;0.45;;;17.00;99.90;;;;;;5051479;28;20040;-47
2022/07/11 08:24:38;;;;;;;0.70;0.40;;;17.10;99.90;;;;;;5051391;28;20102;-49
2022/07/11 08:27:04;;;;;;;0.85;0.50;;;17.20;99.90;;;;;;5051499;28;20041;-47
2022/07/11 08:29:30;;;;;;;2.05;0.50;;;17.40;99.90;;;;;;5051614;28;20166;-49
2022/07/11 08:31:55;;;;;;;1.40;0.50;;;17.50;99.90;;;;;;5051284;28;20449;-47
2022/07/11 08:34:21;;;;;;;2.55;0.70;;;17.50;99.90;;;;;;5051218;28;20056;-46
2022/07/11 08:36:47;;;;;;;1.73;0.50;;;17.30;99.90;;;;;;5051593;28;20055;-47
2022/07/11 08:39:12;;;;;;;2.22;0.47;;;17.30;99.90;;;;;;5051490;28;20033;-49
2022/07/11 08:41:43;;;;;;;1.08;0.30;;;17.10;99.90;;;;;;5052227;28;20465;-47
2022/07/11 08:44:08;;;;;;;1.55;0.43;;;17.30;99.90;;;;;;5052141;28;20186;-49
2022/07/11 08:46:35;;;;;;;0.98;0.40;;;17.30;99.90;;;;;;5050826;28;20125;-45
2022/07/11 08:49:03;;;;;;;0.73;0.32;;;17.40;99.90;;;;;;5052126;28;20041;-48
2022/07/11 08:51:29;;;;;;;0.43;0.35;;;17.40;99.90;;;;;;5050959;28;20079;-46
2022/07/11 08:53:55;;;;;;;0.80;0.40;;;17.50;99.90;;;;;;5054781;28;20045;-46
2022/07/11 08:56:22;;;;;;;2.70;0.70;;;17.50;99.90;;;;;;5058092;28;20040;-46
2022/07/11 08:58:48;;;;;;;1.75;0.63;;;17.60;99.90;;;;;;5040497;28;20052;-47
2022/07/11 09:01:19;;;;;;;4.40;0.60;;;17.60;99.90;;;;;;5058550;28;20033;-47
2022/07/11 09:03:45;;;;;;;3.47;0.55;;;17.30;99.90;;;;;;5058034;28;20401;-46
2022/07/11 09:06:11;;;;;;;0.88;0.50;;;17.20;99.90;;;;;;5058084;28;20060;-47
2022/07/11 09:08:37;;;;;;;3.90;0.98;;;17.20;99.90;;;;;;5058493;28;20515;-48
2022/07/11 09:11:06;;;;;;;2.53;0.55;;;17.20;99.90;;;;;;5040412;28;20080;-51
2022/07/11 09:13:32;;;;;;;1.65;0.60;;;17.30;99.90;;;;;;5058474;28;20055;-48
2022/07/11 09:16:06;;;;;;;0.40;0.40;;;17.40;99.90;;;;;;5058526;28;20037;-48
2022/07/11 09:18:32;;;;;;;1.55;0.55;;;17.50;99.90;;;;;;5058227;28;20401;-48
2022/07/11 09:26:38;;;;;;;2.60;0.50;;;17.20;99.90;;;;;;5058358;28;20033;-46
2022/07/11 09:29:06;;;;;;;2.30;0.60;;;17.30;99.90;;;;;;5057969;28;20116;-47
2022/07/11 09:31:33;;;;;;;0.38;0.38;;;17.50;99.90;;;;;;5058320;28;20067;-47
2022/07/11 09:34:09;;;;;;;0.85;0.30;;;17.70;99.90;;;;;;5058265;28;20044;-51
2022/07/11 09:36:39;;;;;;;1.95;0.60;;;17.80;99.90;;;;;;5058236;28;20120;-50
2022/07/11 09:39:06;;;;;;;1.73;0.43;;;18.10;99.90;;;;;;5057036;28;20485;-50
2022/07/11 09:41:36;;;;;;;0.95;0.50;;;18.00;99.90;;;;;;5057283;28;20040;-47
2022/07/11 09:44:13;;;;;;;0.65;0.35;;;18.20;99.90;;;;;;5057721;28;20041;-46
2022/07/11 09:46:41;;;;;;;1.48;0.70;;;18.00;99.90;;;;;;5057827;28;20094;-48
2022/07/11 09:49:08;;;;;;;2.15;0.75;;;17.90;99.90;;;;;;5057856;28;20033;-47
2022/07/11 09:51:35;;;;;;;3.65;0.50;;;18.10;99.90;;;;;;5057664;28;20040;-52
2022/07/11 09:54:01;;;;;;;2.13;0.47;;;18.00;99.90;;;;;;5058147;28;20049;-47
2022/07/11 09:56:45;;;;;;;1.17;0.52;;;17.70;99.90;;;;;;5040142;28;20512;-47
2022/07/11 09:59:13;;;;;;;1.33;0.50;;;17.50;99.90;;;;;;5058074;28;20045;-46
2022/07/11 10:01:40;;;;;;;1.67;0.60;;;17.50;99.90;;;;;;5057895;28;20074;-46
2022/07/11 10:04:07;;;;;;;0.77;0.43;;;17.60;99.90;;;;;;5057913;28;20037;-47
2022/07/11 10:06:34;;;;;;;3.38;0.50;;;17.60;99.90;;;;;;5037019;28;20382;-46
2022/07/11 10:09:01;;;;;;;3.13;0.52;;;17.60;99.90;;;;;;5037273;28;20052;-47
2022/07/11 10:11:27;;;;;;;1.60;0.50;;;17.70;99.90;;;;;;5054727;28;20397;-46
2022/07/11 10:13:54;;;;;;;2.75;0.80;;;17.70;99.90;;;;;;5036387;28;20052;-46
2022/07/11 10:16:52;;;;;;;1.50;0.68;;;17.70;99.90;;;;;;5036243;28;20044;-47
2022/07/11 10:19:36;;;;;;;3.40;1.00;;;17.70;99.90;;;;;;5052779;28;20096;-46
2022/07/11 10:22:11;;;;;;;1.77;0.70;;;17.50;99.90;;;;;;5053299;28;20052;-46
2022/07/11 10:24:56;;;;;;;1.60;0.60;;;17.40;99.90;;;;;;5052567;28;20044;-47
2022/07/11 10:27:44;;;;;;;2.33;0.70;;;17.60;99.90;;;;;;5053173;28;20045;-49
2022/07/11 10:30:10;;;;;;;1.48;0.80;;;17.60;99.90;;;;;;5034454;28;20504;-47
2022/07/11 10:32:59;;;;;;;2.70;0.57;;;17.50;99.90;;;;;;5043788;28;20116;-46
2022/07/11 10:35:28;;;;;;;1.13;0.47;;;17.40;99.90;;;;;;5053234;28;20037;-47
2022/07/11 10:37:54;;;;;;;1.33;0.50;;;17.40;99.90;;;;;;5019407;28;20083;-50
2022/07/11 10:40:43;;;;;;;0.73;0.40;;;17.60;99.90;;;;;;5054044;28;20045;-49
2022/07/11 10:43:09;;;;;;;0.60;0.50;;;17.80;99.90;;;;;;5052300;28;20116;-46
2022/07/11 10:46:16;;;;;;;1.63;0.50;;;18.00;99.90;;;;;;5035937;28;20045;-47
2022/07/11 10:49:02;;;;;;;0.80;0.50;;;18.20;99.90;;;;;;5050263;28;20127;-49
2022/07/11 10:51:49;;;;;;;1.23;0.40;;;18.20;99.90;;;;;;5035840;28;20496;-51
2022/07/11 10:54:42;;;;;;;1.92;0.50;;;18.10;99.90;;;;;;5053731;28;20039;-49
2022/07/11 10:57:32;;;;;;;1.23;0.50;;;18.10;99.90;;;;;;5053500;28;20358;-47
2022/07/11 10:59:58;;;;;;;2.10;0.60;;;17.90;99.90;;;;;;5053825;28;20393;-48
2022/07/11 11:02:25;;;;;;;2.10;0.60;;;17.90;99.90;;;;;;5053575;28;20048;-49
2022/07/11 11:04:58;;;;;;;1.33;0.60;;;18.00;99.90;;;;;;5053171;28;20048;-48
2022/07/11 11:07:44;;;;;;;0.90;0.60;;;17.90;99.90;;;;;;5053089;28;20048;-44
2022/07/11 11:10:18;;;;;;;0.93;0.60;;;17.90;99.90;;;;;;5053087;28;20116;-47
2022/07/11 11:13:13;;;;;;;1.05;0.52;;;17.90;99.90;;;;;;5053265;28;20041;-48
2022/07/11 11:15:50;;;;;;;2.35;0.60;;;17.90;99.90;;;;;;5053303;28;20048;-46
2022/07/11 11:18:24;;;;;;;3.53;0.73;;;17.80;99.90;;;;;;5052897;28;20394;-46
2022/07/11 11:21:02;;;;;;;2.70;0.70;;;17.90;99.90;;;;;;5033217;28;20043;-47
2022/07/11 11:23:30;;;;;;;3.13;0.90;;;17.90;99.90;;;;;;5050300;28;20555;-49
2022/07/11 11:26:05;;;;;;;2.70;0.80;;;17.80;99.90;;;;;;5052975;28;20737;-47
2022/07/11 11:28:30;;;;;;;2.67;0.60;;;18.00;99.90;;;;;;5052958;28;20114;-50
2022/07/11 11:30:58;;;;;;;1.40;0.90;;;18.00;99.90;;;;;;5053277;28;20529;-49
2022/07/11 11:33:28;;;;;;;1.77;0.70;;;18.00;99.90;;;;;;5053036;28;20037;-49
2022/07/11 11:36:10;;;;;;;2.75;0.70;;;18.10;99.90;;;;;;5053045;28;20485;-48
2022/07/11 11:38:38;;;;;;;2.50;0.73;;;18.00;99.90;;;;;;5053055;28;20444;-47
2022/07/11 11:41:07;;;;;;;1.45;0.60;;;18.10;99.90;;;;;;5053302;28;20124;-47
2022/07/11 11:43:37;;;;;;;1.60;0.68;;;18.10;99.90;;;;;;5053002;28;20044;-49
2022/07/11 11:46:03;;;;;;;0.82;0.40;;;18.10;99.90;;;;;;5052781;28;20051;-47
2022/07/11 11:48:39;;;;;;;1.85;0.60;;;18.40;99.90;;;;;;5052286;28;20045;-45
2022/07/11 11:51:07;;;;;;;2.13;0.65;;;18.30;99.90;;;;;;5034705;28;20039;-44
2022/07/11 11:53:41;;;;;;;1.92;1.00;;;18.50;99.90;;;;;;5034504;28;20044;-45
2022/07/11 11:56:13;;;;;;;1.17;0.70;;;18.40;99.90;;;;;;5052138;28;20041;-45
2022/07/11 11:58:41;;;;;;;1.23;0.73;;;18.20;99.90;;;;;;5052017;28;20041;-45
2022/07/11 12:01:07;;;;;;;0.80;0.60;;;18.30;99.90;;;;;;5052190;28;20493;-44
2022/07/11 12:03:54;;;;;;;2.25;0.70;;;18.30;99.90;;;;;;5052262;28;20059;-46
2022/07/11 12:06:28;;;;;;;2.90;0.60;;;18.40;99.90;;;;;;5051533;28;20057;-45
2022/07/11 12:09:03;;;;;;;2.33;0.60;;;18.10;99.90;;;;;;5051986;28;20048;-45
2022/07/11 12:11:30;;;;;;;3.92;0.68;;;18.30;99.90;;;;;;5049758;28;20037;-45
2022/07/11 12:14:00;;;;;;;1.73;0.73;;;18.20;99.90;;;;;;5052076;28;20067;-46
2022/07/11 12:16:41;;;;;;;4.03;0.70;;;18.20;99.90;;;;;;5049369;28;20516;-49
2022/07/11 12:19:32;;;;;;;1.65;0.60;;;18.30;99.90;;;;;;5049957;28;20044;-47
2022/07/11 12:21:59;;;;;;;2.90;0.80;;;18.70;99.90;;;;;;5051129;28;20033;-46
2022/07/11 12:24:29;;;;;;;1.83;0.68;;;18.40;99.90;;;;;;5052385;28;20049;-47
2022/07/11 12:26:55;;;;;;;2.42;0.55;;;18.50;99.90;;;;;;5034556;28;20121;-45
2022/07/11 12:29:27;;;;;;;0.65;0.52;;;18.50;99.90;;;;;;5051688;28;20376;-46
2022/07/11 12:31:57;;;;;;;1.00;0.60;;;18.40;99.90;;;;;;5052135;28;20044;-47
2022/07/11 12:34:46;;;;;;;1.55;0.60;;;18.50;99.90;;;;;;5052381;28;20131;-46
2022/07/11 12:37:14;;;;;;;2.60;1.05;;;18.50;99.90;;;;;;5044330;28;20397;-46
2022/07/11 12:39:51;;;;;;;4.68;1.00;;;18.40;99.90;;;;;;5052427;28;20048;-45
2022/07/11 12:42:33;;;;;;;2.08;0.75;;;18.30;99.90;;;;;;5052248;28;20041;-45
2022/07/11 12:45:07;;;;;;;1.90;0.70;;;18.20;99.90;;;;;;5052102;28;20052;-46
2022/07/11 12:47:44;;;;;;;2.25;0.70;;;18.20;99.90;;;;;;5052120;28;20114;-46
2022/07/11 12:50:14;;;;;;;1.35;0.80;;;18.20;99.90;;;;;;5052096;28;20037;-47
2022/07/11 12:52:44;;;;;;;1.63;0.70;;;18.20;99.90;;;;;;5052010;28;20037;-51
2022/07/11 12:55:14;;;;;;;5.78;1.00;;;18.40;99.90;;;;;;5034178;28;20120;-46
2022/07/11 12:57:39;;;;;;;1.73;0.80;;;18.50;99.90;;;;;;5051980;28;20036;-50
2022/07/11 13:00:16;;;;;;;1.75;0.70;;;18.90;99.90;;;;;;5051945;28;20131;-51
2022/07/11 13:02:52;;;;;;;2.10;0.85;;;18.60;99.90;;;;;;5051776;28;20099;-49